Dades meteomassalio
Diari Summary for Gener 24, 2017 Units:  Metric    English   Both
« Previous Day
Next Day »
Diari Semanal Mensual Anual Personalitzat
  Maxima: Minima: Mijana:
Temperatura: -17.8 °C -15.2 °C -13.7 °C
Rosada: -17.8 °C -18 °C -17.3 °C
Humitat: Humidity % 47 % 64 %
Velocitat del vent: 0 km/h 0 km/h 26.9 km/h
Racha vent: 0 km/h - -
Vent:- - West
Pressio: 0 hPa 34577.8 hPa -
Pluja: 0 mm    
Historical Graphs
 
 
Tabular Data for Gener 24, 2017
Time Temperature Dew Point Pressure Wind Wind Speed Wind Gust Humidity Rainfall Rate (Hourly) solar Conditions
-17.8 °C -17.8 °C 0 hPa Calm     Humidity % 0 mm SolarRadiationWatts/m^2 W/m2 Conditions
00:02 -14.2 °C -17.1 °C 34601.5 hPa West 20.9 km/h 20.9 km/h 70 % 0 mm 0.0 W/m2 RA
00:07 -14.3 °C -17 °C 34601.5 hPa West 29.8 km/h 29.8 km/h 71 % 0 mm 0.0 W/m2 CLR
00:12 -14.3 °C -17.1 °C 34601.5 hPa West 28.5 km/h 28.5 km/h 70 % 0 mm 0.0 W/m2 CLR
00:17 -14.3 °C -17 °C 34601.5 hPa WSW 29.8 km/h 29.8 km/h 71 % 0 mm 0.0 W/m2 CLR
00:22 -14.3 °C -17 °C 34601.5 hPa WSW 17.9 km/h 17.9 km/h 71 % 0 mm 0.0 W/m2 CLR
00:27 -14.3 °C -17 °C 34601.5 hPa WSW 20.9 km/h 20.9 km/h 71 % 0 mm 0.0 W/m2 CLR
00:32 -14.3 °C -17 °C 34601.5 hPa WSW 23.8 km/h 23.8 km/h 71 % 0 mm 0.0 W/m2 CLR
00:37 -14.3 °C -17.1 °C 34601.5 hPa West 35.7 km/h 35.7 km/h 71 % 0 mm 0.0 W/m2 CLR
00:42 -14.3 °C -17.1 °C 34601.5 hPa WSW 23.3 km/h 23.3 km/h 71 % 0 mm 0.0 W/m2 CLR
00:47 -14.3 °C -17.1 °C 34611.7 hPa WSW 15 km/h 15 km/h 71 % 0 mm 0.0 W/m2 CLR
00:52 -14.3 °C -17.1 °C 34611.7 hPa West 17.9 km/h 17.9 km/h 71 % 0 mm 0.0 W/m2 CLR
00:57 -14.4 °C -17 °C 34601.5 hPa WSW 11.9 km/h 11.9 km/h 72 % 0 mm 0.0 W/m2 CLR
01:02 -14.4 °C -17 °C 34601.5 hPa West 23.8 km/h 23.8 km/h 72 % 0 mm 0.0 W/m2 CLR
01:07 -14.4 °C -17.1 °C 34601.5 hPa WSW 29.8 km/h 29.8 km/h 72 % 0 mm 0.0 W/m2 CLR
01:12 -14.4 °C -17.1 °C 34601.5 hPa WSW 32.8 km/h 32.8 km/h 72 % 0 mm 0.0 W/m2 CLR
01:17 -14.5 °C -17.1 °C 34601.5 hPa West 26.9 km/h 26.9 km/h 72 % 0 mm 0.0 W/m2 CLR
01:22 -14.5 °C -17 °C 34601.5 hPa West 15 km/h 15 km/h 73 % 0 mm 0.0 W/m2 CLR
01:27 -14.6 °C -17 °C 34601.5 hPa West 23.8 km/h 23.8 km/h 73 % 0 mm 0.0 W/m2 CLR
01:32 -14.6 °C -17.1 °C 34601.5 hPa West 15 km/h 15 km/h 73 % 0 mm 0.0 W/m2 CLR
01:37 -14.6 °C -17.1 °C 34601.5 hPa WSW 11.9 km/h 11.9 km/h 73 % 0 mm 0.0 W/m2 CLR
01:42 -14.7 °C -17.1 °C 34601.5 hPa West 26.9 km/h 26.9 km/h 73 % 0 mm 0.0 W/m2 CLR
01:47 -14.7 °C -17.1 °C 34591.4 hPa West 29.8 km/h 29.8 km/h 73 % 0 mm 0.0 W/m2 CLR
01:52 -14.7 °C -17.1 °C 34591.4 hPa West 28.5 km/h 28.5 km/h 73 % 0 mm 0.0 W/m2 CLR
01:57 -14.7 °C -17.2 °C 34601.5 hPa West 29.8 km/h 29.8 km/h 73 % 0 mm 0.0 W/m2 CLR
02:02 -14.7 °C -17.1 °C 34601.5 hPa West 20.9 km/h 20.9 km/h 74 % 0 mm 0.0 W/m2 CLR
02:07 -14.7 °C -17.1 °C 34591.4 hPa West 26.9 km/h 26.9 km/h 74 % 0 mm 0.0 W/m2 CLR
02:12 -14.7 °C -17.1 °C 34601.5 hPa West 23.8 km/h 23.8 km/h 74 % 0 mm 0.0 W/m2 CLR
02:17 -14.8 °C -17.1 °C 34601.5 hPa WSW 26.9 km/h 26.9 km/h 74 % 0 mm 0.0 W/m2 CLR
02:22 -14.8 °C -17.1 °C 34601.5 hPa WSW 20.9 km/h 20.9 km/h 74 % 0 mm 0.0 W/m2 CLR
02:27 -14.8 °C -17.2 °C 34601.5 hPa WSW 17.9 km/h 17.9 km/h 74 % 0 mm 0.0 W/m2 CLR
02:32 -14.8 °C -17.2 °C 34601.5 hPa WSW 23.8 km/h 23.8 km/h 74 % 0 mm 0.0 W/m2 CLR
02:37 -14.8 °C -17.2 °C 34601.5 hPa WSW 23.8 km/h 23.8 km/h 74 % 0 mm 0.0 W/m2 CLR
02:42 -14.8 °C -17.2 °C 34591.4 hPa WSW 15.6 km/h 15.6 km/h 74 % 0 mm 0.0 W/m2 CLR
02:47 -14.9 °C -17.3 °C 34591.4 hPa WSW 17.9 km/h 17.9 km/h 74 % 0 mm 0.0 W/m2 CLR
02:52 -14.9 °C -17.3 °C 34591.4 hPa West 31.1 km/h 31.1 km/h 74 % 0 mm 0.0 W/m2 CLR
02:57 -14.8 °C -17.2 °C 34591.4 hPa West 31.1 km/h 31.1 km/h 74 % 0 mm 0.0 W/m2 CLR
03:02 -14.8 °C -17.3 °C 34591.4 hPa West 29.8 km/h 29.8 km/h 73 % 0 mm 0.0 W/m2 CLR
03:07 -14.8 °C -17.3 °C 34591.4 hPa WSW 17.9 km/h 17.9 km/h 73 % 0 mm 0.0 W/m2 CLR
03:12 -14.9 °C -17.3 °C 34591.4 hPa WSW 20.9 km/h 20.9 km/h 74 % 0 mm 0.0 W/m2 CLR
03:17 -14.9 °C -17.3 °C 34591.4 hPa West 26.9 km/h 26.9 km/h 74 % 0 mm 0.0 W/m2 CLR
03:22 -14.9 °C -17.3 °C 34591.4 hPa WSW 29.8 km/h 29.8 km/h 74 % 0 mm 0.0 W/m2 CLR
03:27 -14.9 °C -17.3 °C 34591.4 hPa WSW 29.8 km/h 29.8 km/h 74 % 0 mm 0.0 W/m2 CLR
03:32 -14.9 °C -17.3 °C 34591.4 hPa WSW 20.9 km/h 20.9 km/h 74 % 0 mm 0.0 W/m2 CLR
03:37 -14.9 °C -17.4 °C 34591.4 hPa West 29.8 km/h 29.8 km/h 73 % 0 mm 0.0 W/m2 CLR
03:42 -14.9 °C -17.3 °C 34601.5 hPa WSW 23.8 km/h 23.8 km/h 74 % 0 mm 0.0 W/m2 CLR
03:47 -14.9 °C -17.4 °C 34601.5 hPa WSW 20.8 km/h 20.8 km/h 73 % 0 mm 0.0 W/m2 CLR
03:52 -14.9 °C -17.3 °C 34601.5 hPa WSW 35.7 km/h 35.7 km/h 74 % 0 mm 0.0 W/m2 CLR
03:57 -14.9 °C -17.4 °C 34591.4 hPa WSW 31.1 km/h 31.1 km/h 73 % 0 mm 0.0 W/m2 CLR
04:02 -14.9 °C -17.4 °C 34601.5 hPa West 29.8 km/h 29.8 km/h 73 % 0 mm 0.0 W/m2 CLR
04:07 -14.9 °C -17.4 °C 34601.5 hPa West 29.8 km/h 29.8 km/h 73 % 0 mm 0.0 W/m2 CLR
04:12 -14.9 °C -17.4 °C 34601.5 hPa West 23.8 km/h 23.8 km/h 73 % 0 mm 0.0 W/m2 CLR
04:17 -14.9 °C -17.4 °C 34601.5 hPa WSW 20.9 km/h 20.9 km/h 73 % 0 mm 0.0 W/m2 CLR
04:22 -14.9 °C -17.4 °C 34601.5 hPa WSW 29.8 km/h 29.8 km/h 73 % 0 mm 0.0 W/m2 CLR
04:28 -14.9 °C -17.4 °C 34601.5 hPa WSW 26.9 km/h 26.9 km/h 73 % 0 mm 0.0 W/m2 CLR
04:33 -14.9 °C -17.3 °C 34601.5 hPa WSW 15 km/h 15 km/h 74 % 0 mm 0.0 W/m2 CLR
04:38 -15.1 °C -17.4 °C 34611.7 hPa WSW 20.9 km/h 20.9 km/h 74 % 0 mm 0.0 W/m2 CLR
04:43 -15.1 °C -17.4 °C 34611.7 hPa WSW 20.9 km/h 20.9 km/h 74 % 0 mm 0.0 W/m2 CLR
04:47 -15.1 °C -17.4 °C 34611.7 hPa WSW 20.9 km/h 20.9 km/h 75 % 0 mm 0.0 W/m2 CLR
04:53 -15.2 °C -17.4 °C 34611.7 hPa WSW 23.8 km/h 23.8 km/h 75 % 0 mm 0.0 W/m2 CLR
04:58 -15.2 °C -17.4 °C 34611.7 hPa WSW 9 km/h 9 km/h 75 % 0 mm 0.0 W/m2 CLR
05:03 -15.2 °C -17.4 °C 34611.7 hPa WSW 11.9 km/h 11.9 km/h 75 % 0 mm 0.0 W/m2 CLR
05:08 -15.2 °C -17.4 °C 34611.7 hPa WSW 26.9 km/h 26.9 km/h 75 % 0 mm 0.0 W/m2 CLR
05:13 -15.2 °C -17.4 °C 34611.7 hPa WSW 12.9 km/h 12.9 km/h 75 % 0 mm 0.0 W/m2 CLR
05:18 -15.2 °C -17.4 °C 34611.7 hPa WSW 17.9 km/h 17.9 km/h 75 % 0 mm 0.0 W/m2 CLR
05:23 -15.2 °C -17.4 °C 34611.7 hPa SW 15.6 km/h 15.6 km/h 75 % 0 mm 0.0 W/m2 CLR
05:28 -15.2 °C -17.4 °C 34611.7 hPa SW 23.8 km/h 23.8 km/h 75 % 0 mm 0.0 W/m2 CLR
05:33 -15.2 °C -17.4 °C 34611.7 hPa WSW 20.8 km/h 20.8 km/h 75 % 0 mm 0.0 W/m2 CLR
05:38 -15.1 °C -17.4 °C 34611.7 hPa WSW 15 km/h 15 km/h 74 % 0 mm 0.0 W/m2 CLR
05:43 -15.1 °C -17.4 °C 34611.7 hPa SW 18.2 km/h 18.2 km/h 74 % 0 mm 0.0 W/m2 CLR
05:48 -15.1 °C -17.4 °C 34611.7 hPa SW 28.5 km/h 28.5 km/h 74 % 0 mm 0.0 W/m2 CLR
05:53 -15.1 °C -17.4 °C 34611.7 hPa West 32.8 km/h 32.8 km/h 74 % 0 mm 0.0 W/m2 CLR
05:58 -15 °C -17.4 °C 34611.7 hPa West 28.5 km/h 28.5 km/h 74 % 0 mm 0.0 W/m2 CLR
06:03 -14.9 °C -17.4 °C 34611.7 hPa West 32.8 km/h 32.8 km/h 73 % 0 mm 0.0 W/m2 CLR
06:08 -14.9 °C -17.4 °C 34611.7 hPa West 32.8 km/h 32.8 km/h 73 % 0 mm 0.0 W/m2 CLR
06:13 -14.9 °C -17.4 °C 34611.7 hPa West 23.8 km/h 23.8 km/h 73 % 0 mm 0.0 W/m2 CLR
06:18 -14.9 °C -17.4 °C 34611.7 hPa West 29.8 km/h 29.8 km/h 73 % 0 mm 0.0 W/m2 CLR
06:23 -14.9 °C -17.4 °C 34611.7 hPa West 32.8 km/h 32.8 km/h 73 % 0 mm 0.0 W/m2 CLR
06:28 -14.9 °C -17.4 °C 34611.7 hPa West 15.6 km/h 15.6 km/h 73 % 0 mm 0.0 W/m2 CLR
06:33 -15 °C -17.4 °C 34611.7 hPa WSW 26.9 km/h 26.9 km/h 73 % 0 mm 0.0 W/m2 CLR
06:38 -15 °C -17.4 °C 34611.7 hPa WSW 33.6 km/h 33.6 km/h 73 % 0 mm 0.0 W/m2 CLR
06:43 -15 °C -17.4 °C 34611.7 hPa WSW 32.8 km/h 32.8 km/h 73 % 0 mm 0.0 W/m2 CLR
06:48 -15.1 °C -17.5 °C 34611.7 hPa Calm     73 % 0 mm 0.0 W/m2 CLR
06:53 -15.1 °C -17.6 °C 34611.7 hPa West 9 km/h 9 km/h 73 % 0 mm 0.0 W/m2 CLR
06:58 -15.1 °C -17.6 °C 34611.7 hPa WSW 11.9 km/h 11.9 km/h 73 % 0 mm 0.0 W/m2 CLR
07:03 -15.2 °C -17.6 °C 34611.7 hPa WSW 11.9 km/h 11.9 km/h 73 % 0 mm 0.0 W/m2 CLR
07:08 -15.2 °C -17.6 °C 34625.2 hPa SW 11.9 km/h 11.9 km/h 73 % 0 mm 0.0 W/m2 CLR
07:13 -15.2 °C -17.6 °C 34611.7 hPa Calm     74 % 0 mm 0.0 W/m2 CLR
07:18 -15.2 °C -17.6 °C 34611.7 hPa Calm     74 % 0 mm 0.0 W/m2 CLR
07:23 -15.2 °C -17.6 °C 34625.2 hPa WSW 12.9 km/h 12.9 km/h 74 % 0 mm 0.0 W/m2 CLR
07:28 -15.2 °C -17.6 °C 34625.2 hPa WSW 9 km/h 9 km/h 74 % 0 mm 0.0 W/m2 CLR
07:33 -15.2 °C -17.7 °C 34625.2 hPa WSW 23.3 km/h 23.3 km/h 73 % 0 mm 0.0 W/m2 CLR
07:38 -15.1 °C -17.6 °C 34625.2 hPa WSW 29.8 km/h 29.8 km/h 73 % 0 mm 0.0 W/m2 CLR
07:43 -15.1 °C -17.6 °C 34625.2 hPa WSW 15.6 km/h 15.6 km/h 73 % 0 mm 0.0 W/m2 CLR
07:48 -15.1 °C -17.6 °C 34635.4 hPa WSW 17.9 km/h 17.9 km/h 72 % 0 mm 0.0 W/m2 CLR
07:53 -15.1 °C -17.7 °C 34635.4 hPa West 20.8 km/h 20.8 km/h 72 % 0 mm 0.0 W/m2 CLR
07:58 -15.1 °C -17.7 °C 34635.4 hPa West 9 km/h 9 km/h 72 % 0 mm 0.0 W/m2 CLR
08:03 -15.1 °C -17.7 °C 34635.4 hPa WSW 32.8 km/h 32.8 km/h 72 % 0 mm 0.0 W/m2 CLR
08:08 -15.1 °C -17.6 °C 34635.4 hPa West 32.8 km/h 32.8 km/h 72 % 0 mm 0.0 W/m2 CLR
08:13 -14.9 °C -17.7 °C 34635.4 hPa West 29.8 km/h 29.8 km/h 71 % 0 mm 0.0 W/m2 CLR
08:18 -15.1 °C -17.7 °C 34635.4 hPa WSW 20.9 km/h 20.9 km/h 71 % 0 mm 0.0 W/m2 OVC
08:23 -15 °C -17.7 °C 34635.4 hPa WSW 18.2 km/h 18.2 km/h 71 % 0 mm 0.0 W/m2 OVC
08:28 -15.1 °C -17.7 °C 34635.4 hPa WSW 23.8 km/h 23.8 km/h 71 % 0 mm 5.0 W/m2 OVC
08:33 -15.1 °C -17.8 °C 34635.4 hPa WSW 28.5 km/h 28.5 km/h 71 % 0 mm 9.0 W/m2 OVC
08:38 -15.1 °C -17.7 °C 34635.4 hPa West 17.9 km/h 17.9 km/h 71 % 0 mm 12.0 W/m2 BKN
08:43 -15 °C -17.8 °C 34635.4 hPa WSW 26.9 km/h 26.9 km/h 70 % 0 mm 18.0 W/m2 BKN
08:48 -14.9 °C -17.8 °C 34645.6 hPa West 20.9 km/h 20.9 km/h 69 % 0 mm 26.0 W/m2 BKN
08:53 -14.9 °C -17.8 °C 34645.6 hPa West 32.8 km/h 32.8 km/h 69 % 0 mm 33.0 W/m2 BKN
08:58 -14.9 °C -17.8 °C 34645.6 hPa WSW 20.9 km/h 20.9 km/h 69 % 0 mm 37.0 W/m2 BKN
09:03 -14.8 °C -17.9 °C 34659.1 hPa WSW 23.8 km/h 23.8 km/h 68 % 0 mm 40.0 W/m2 BKN
09:08 -14.8 °C -17.8 °C 34645.6 hPa WSW 38.8 km/h 38.8 km/h 68 % 0 mm 47.0 W/m2 BKN
09:13 -14.8 °C -17.9 °C 34645.6 hPa WSW 26.9 km/h 26.9 km/h 67 % 0 mm 54.0 W/m2 BKN
09:18 -14.8 °C -17.9 °C 34645.6 hPa WSW 26.9 km/h 26.9 km/h 67 % 0 mm 62.0 W/m2 BKN
09:23 -14.7 °C -17.8 °C 34645.6 hPa West 41.7 km/h 41.7 km/h 67 % 0 mm 70.0 W/m2 BKN
09:28 -14.7 °C -17.8 °C 34659.1 hPa West 26.9 km/h 26.9 km/h 67 % 0 mm 79.0 W/m2 BKN
09:33 -14.6 °C -17.8 °C 34659.1 hPa West 32.8 km/h 32.8 km/h 67 % 0 mm 77.0 W/m2 BKN
09:38 -14.6 °C -17.7 °C 34659.1 hPa West 29.8 km/h 29.8 km/h 67 % 0 mm 91.0 W/m2 BKN
09:43 -14.5 °C -17.8 °C 34659.1 hPa West 47.6 km/h 47.6 km/h 66 % 0 mm 130.0 W/m2 BKN
09:48 -14.4 °C -17.7 °C 34659.1 hPa West 38.8 km/h 38.8 km/h 66 % 0 mm 134.0 W/m2 BKN
09:53 -14.4 °C -17.7 °C 34659.1 hPa West 36.2 km/h 36.2 km/h 66 % 0 mm 114.0 W/m2 BKN
09:58 -14.4 °C -17.7 °C 34659.1 hPa WNW 44.7 km/h 44.7 km/h 66 % 0 mm 206.0 W/m2 BKN
10:03 -14.3 °C -17.7 °C 34659.1 hPa West 50.7 km/h 50.7 km/h 65 % 0 mm 183.0 W/m2 BKN
10:08 -14.2 °C -17.6 °C 34659.1 hPa WNW 38.8 km/h 38.8 km/h 65 % 0 mm 251.0 W/m2 SCT
10:13 -14.1 °C -17.5 °C 34669.3 hPa West 47.6 km/h 47.6 km/h 65 % 0 mm 248.0 W/m2 SCT
10:18 -14.1 °C -17.3 °C 34669.3 hPa West 28.5 km/h 28.5 km/h 66 % 0 mm 176.0 W/m2 SCT
10:23 -14.1 °C -17.5 °C 34669.3 hPa West 53.6 km/h 53.6 km/h 65 % 0 mm 176.0 W/m2 BKN
10:28 -14.1 °C -17.6 °C 34669.3 hPa WNW 31.1 km/h 31.1 km/h 65 % 0 mm 179.0 W/m2 BKN
10:33 -14.1 °C -17.6 °C 34669.3 hPa WNW 33.6 km/h 33.6 km/h 65 % 0 mm 156.0 W/m2 BKN
10:39 -14.1 °C -17.6 °C 34669.3 hPa West 50.7 km/h 50.7 km/h 65 % 0 mm 185.0 W/m2 BKN
10:44 -14.1 °C -17.5 °C 34669.3 hPa West 50.7 km/h 50.7 km/h 65 % 0 mm 174.0 W/m2 BKN
10:49 -14.1 °C -17.3 °C 34669.3 hPa West 44.7 km/h 44.7 km/h 66 % 0 mm 229.0 W/m2 BKN
10:54 -14 °C -17.3 °C 34682.8 hPa West 46.7 km/h 46.7 km/h 66 % 0 mm 202.0 W/m2 BKN
10:59 -13.9 °C -17.3 °C 34682.8 hPa West 41.7 km/h 41.7 km/h 66 % 0 mm 229.0 W/m2 BKN
11:04 -13.9 °C -17.3 °C 34682.8 hPa West 41.7 km/h 41.7 km/h 65 % 0 mm 185.0 W/m2 BKN
11:09 -13.9 °C -17.3 °C 34682.8 hPa WNW 50.7 km/h 50.7 km/h 65 % 0 mm 156.0 W/m2 BKN
11:14 -13.9 °C -17.4 °C 34682.8 hPa WNW 32.8 km/h 32.8 km/h 64 % 0 mm 204.0 W/m2 BKN
11:19 -13.8 °C -17.3 °C 34682.8 hPa WNW 47.6 km/h 47.6 km/h 65 % 0 mm 192.0 W/m2 BKN
11:24 -13.8 °C -17.3 °C 34693 hPa West 36.2 km/h 36.2 km/h 65 % 0 mm 114.0 W/m2 BKN
11:29 -13.8 °C -17.2 °C 34682.8 hPa West 41.7 km/h 41.7 km/h 66 % 0 mm 141.0 W/m2 BKN
11:34 -13.8 °C -17.3 °C 34682.8 hPa WNW 46.7 km/h 46.7 km/h 65 % 0 mm 264.0 W/m2 BKN
11:39 -13.7 °C -17 °C 34682.8 hPa WNW 32.8 km/h 32.8 km/h 66 % 0 mm 353.0 W/m2 BKN
11:44 -13.5 °C -17.1 °C 34682.8 hPa West 47.6 km/h 47.6 km/h 64 % 0 mm 431.0 W/m2 SCT
11:49 -13.4 °C -17.1 °C 34682.8 hPa West 41.7 km/h 41.7 km/h 63 % 0 mm 185.0 W/m2 SCT
11:54 -13.4 °C -16.9 °C 34682.8 hPa WNW 35.7 km/h 35.7 km/h 64 % 0 mm 214.0 W/m2 BKN
11:59 -13.4 °C -17.1 °C 34682.8 hPa WNW 49.2 km/h 49.2 km/h 63 % 0 mm 156.0 W/m2 BKN
12:04 -13.4 °C -17.2 °C 34682.8 hPa West 38.8 km/h 38.8 km/h 62 % 0 mm 155.0 W/m2 BKN
12:09 -13.3 °C -17.1 °C 34682.8 hPa WNW 41.7 km/h 41.7 km/h 62 % 0 mm 471.0 W/m2 BKN
12:14 -13.2 °C -17.1 °C 34682.8 hPa West 32.8 km/h 33.6 km/h 61 % 0 mm 236.0 W/m2 SCT
12:19 -13.1 °C -17.1 °C 34669.3 hPa West 32.8 km/h 32.8 km/h 60 % 0 mm 383.0 W/m2 SCT
12:24 -13 °C -17.2 °C 34669.3 hPa West 44.7 km/h 44.7 km/h 59 % 0 mm 292.0 W/m2 SCT
12:29 -12.9 °C -17.1 °C 34669.3 hPa WNW 36.2 km/h 36.2 km/h 60 % 0 mm 299.0 W/m2 SCT
12:34 -12.9 °C -16.9 °C 34669.3 hPa WNW 29.8 km/h 29.8 km/h 60 % 0 mm 494.0 W/m2 SCT
12:39 -12.7 °C -16.9 °C 34659.1 hPa WNW 38.8 km/h 38.8 km/h 59 % 0 mm 424.0 W/m2 FEW
12:45 -12.6 °C -16.6 °C 34659.1 hPa WNW 41.7 km/h 41.7 km/h 61 % 0 mm 301.0 W/m2 FEW
12:50 -12.6 °C -16.8 °C 34645.6 hPa WNW 41.7 km/h 41.7 km/h 59 % 0 mm 243.0 W/m2 SCT
12:55 -12.7 °C -17 °C 34645.6 hPa WNW 46.7 km/h 46.7 km/h 58 % 0 mm 269.0 W/m2 BKN
13:00 -12.6 °C -17 °C 34645.6 hPa West 41.7 km/h 41.7 km/h 58 % 0 mm 359.0 W/m2 SCT
13:05 -12.6 °C -16.9 °C 34645.6 hPa West 38.8 km/h 38.8 km/h 58 % 0 mm 334.0 W/m2 SCT
13:10 -12.6 °C -17.1 °C 34645.6 hPa WNW 44.7 km/h 44.7 km/h 57 % 0 mm 272.0 W/m2 SCT
13:15 -12.5 °C -16.9 °C 34635.4 hPa WNW 29.8 km/h 29.8 km/h 58 % 0 mm 350.0 W/m2 SCT
13:20 -12.4 °C -17.2 °C 34635.4 hPa WNW 53.6 km/h 53.6 km/h 55 % 0 mm 381.0 W/m2 SCT
13:25 -12.3 °C -16.8 °C 34635.4 hPa WNW 26.9 km/h 26.9 km/h 57 % 0 mm 304.0 W/m2 SCT
13:30 -12.3 °C -16.6 °C 34635.4 hPa NW 36.2 km/h 36.2 km/h 59 % 0 mm 390.0 W/m2 SCT
13:35 -12.3 °C -17 °C 34635.4 hPa NW 38.8 km/h 38.8 km/h 56 % 0 mm 336.0 W/m2 SCT
13:40 -12.2 °C -17 °C 34625.2 hPa NW 44.7 km/h 44.7 km/h 55 % 0 mm 415.0 W/m2 FEW
13:45 -12.2 °C -16.7 °C 34625.2 hPa WNW 41.7 km/h 41.7 km/h 57 % 0 mm 406.0 W/m2 FEW
13:50 -12.2 °C -17.1 °C 34625.2 hPa WNW 47.6 km/h 47.6 km/h 54 % 0 mm 339.0 W/m2 FEW
13:55 -12.2 °C -16.8 °C 34625.2 hPa WNW 50.7 km/h 50.7 km/h 56 % 0 mm 404.0 W/m2 FEW
14:00 -12.2 °C -16.7 °C 34625.2 hPa WNW 36.2 km/h 36.2 km/h 57 % 0 mm 476.0 W/m2 FEW
14:05 -12.1 °C -16.9 °C 34611.7 hPa WNW 38.8 km/h 38.8 km/h 55 % 0 mm 441.0 W/m2 FEW
14:10 -12.1 °C -16.8 °C 34611.7 hPa WNW 38.8 km/h 40.9 km/h 55 % 0 mm 334.0 W/m2 CLR
14:15 -12.1 °C -16.9 °C 34611.7 hPa WNW 44.7 km/h 44.7 km/h 55 % 0 mm 301.0 W/m2 FEW
14:20 -12.1 °C -17 °C 34611.7 hPa WNW 29.8 km/h 29.8 km/h 54 % 0 mm 323.0 W/m2 FEW
14:25 -12 °C -16.8 °C 34611.7 hPa WNW 31.1 km/h 31.1 km/h 55 % 0 mm 399.0 W/m2 FEW
14:30 -11.9 °C -16.8 °C 34601.5 hPa WNW 35.7 km/h 35.7 km/h 54 % 0 mm 464.0 W/m2 CLR
14:35 -11.7 °C -16.8 °C 34601.5 hPa WNW 38.8 km/h 38.8 km/h 53 % 0 mm 454.0 W/m2 CLR
14:40 -11.7 °C -16.7 °C 34601.5 hPa WNW 38.8 km/h 38.8 km/h 54 % 0 mm 441.0 W/m2 CLR
14:45 -11.6 °C -16.3 °C 34601.5 hPa WNW 38.8 km/h 38.8 km/h 56 % 0 mm 436.0 W/m2 CLR
14:50 -11.6 °C -16.6 °C 34591.4 hPa WNW 50.7 km/h 50.7 km/h 54 % 0 mm 425.0 W/m2 CLR
14:55 -11.6 °C -16.9 °C 34591.4 hPa WNW 41.4 km/h 41.4 km/h 52 % 0 mm 417.0 W/m2 CLR
15:00 -11.6 °C -17 °C 34591.4 hPa WNW 38.8 km/h 38.8 km/h 51 % 0 mm 408.0 W/m2 CLR
15:05 -11.6 °C -16.7 °C 34591.4 hPa WNW 50.7 km/h 50.7 km/h 53 % 0 mm 396.0 W/m2 CLR
15:10 -11.6 °C -17 °C 34591.4 hPa WNW 32.8 km/h 32.8 km/h 51 % 0 mm 388.0 W/m2 CLR
15:15 -11.4 °C -16.9 °C 34591.4 hPa WNW 35.7 km/h 35.7 km/h 51 % 0 mm 381.0 W/m2 CLR
15:20 -11.4 °C -16.7 °C 34591.4 hPa WNW 38.8 km/h 38.8 km/h 52 % 0 mm 371.0 W/m2 CLR
15:25 -11.4 °C -16.8 °C 34591.4 hPa WNW 44.7 km/h 44.7 km/h 51 % 0 mm 362.0 W/m2 CLR
15:30 -11.3 °C -16.8 °C 34591.4 hPa WNW 35.7 km/h 35.7 km/h 51 % 0 mm 352.0 W/m2 CLR
15:35 -11.3 °C -16.9 °C 34591.4 hPa WNW 38.8 km/h 38.8 km/h 50 % 0 mm 341.0 W/m2 CLR
15:40 -11.3 °C -16.9 °C 34591.4 hPa WNW 44.7 km/h 44.7 km/h 50 % 0 mm 330.0 W/m2 CLR
15:45 -11.4 °C -16.8 °C 34591.4 hPa WNW 32.8 km/h 32.8 km/h 51 % 0 mm 322.0 W/m2 CLR
15:50 -11.3 °C -16.9 °C 34591.4 hPa WNW 29.8 km/h 29.8 km/h 50 % 0 mm 309.0 W/m2 CLR
15:55 -11.3 °C -16.6 °C 34591.4 hPa WNW 26.9 km/h 26.9 km/h 52 % 0 mm 301.0 W/m2 CLR
16:00 -11.3 °C -16.9 °C 34591.4 hPa WNW 35.7 km/h 35.7 km/h 50 % 0 mm 287.0 W/m2 CLR
16:05 -11.3 °C -17.2 °C 34591.4 hPa WNW 35.7 km/h 35.7 km/h 48 % 0 mm 274.0 W/m2 CLR
16:10 -11.3 °C -16.6 °C 34591.4 hPa WNW 32.8 km/h 32.8 km/h 52 % 0 mm 262.0 W/m2 CLR
16:15 -11.3 °C -16.9 °C 34591.4 hPa WNW 33.6 km/h 33.6 km/h 50 % 0 mm 250.0 W/m2 CLR
16:20 -11.3 °C -17.1 °C 34591.4 hPa WNW 32.8 km/h 32.8 km/h 49 % 0 mm 234.0 W/m2 CLR
16:26 -11.3 °C -16.7 °C 34577.8 hPa WNW 26.9 km/h 26.9 km/h 51 % 0 mm 218.0 W/m2 CLR
16:30 -11.3 °C -17.1 °C 34577.8 hPa WNW 26.9 km/h 26.9 km/h 49 % 0 mm 204.0 W/m2 CLR
16:36 -11.2 °C -16.7 °C 34591.4 hPa WNW 29.8 km/h 29.8 km/h 51 % 0 mm 188.0 W/m2 CLR
16:41 -11.3 °C -17.1 °C 34591.4 hPa WNW 29.8 km/h 29.8 km/h 49 % 0 mm 174.0 W/m2 CLR
16:46 -11.3 °C -17.3 °C 34591.4 hPa WNW 38.8 km/h 38.8 km/h 47 % 0 mm 158.0 W/m2 CLR
16:51 -11.3 °C -17.4 °C 34591.4 hPa WNW 35.7 km/h 35.7 km/h 47 % 0 mm 142.0 W/m2 CLR
16:56 -11.4 °C -17.4 °C 34591.4 hPa WNW 38.8 km/h 38.8 km/h 47 % 0 mm 128.0 W/m2 SCT
17:01 -11.4 °C -17.3 °C 34591.4 hPa WNW 32.8 km/h 32.8 km/h 48 % 0 mm 113.0 W/m2 BKN
17:06 -11.4 °C -17.5 °C 34591.4 hPa WNW 26.9 km/h 26.9 km/h 47 % 0 mm 98.0 W/m2 OVC
17:11 -11.5 °C -17.3 °C 34591.4 hPa WNW 31.1 km/h 31.1 km/h 49 % 0 mm 83.0 W/m2 OVC
17:16 -11.6 °C -17.3 °C 34591.4 hPa WNW 29.8 km/h 29.8 km/h 49 % 0 mm 67.0 W/m2 OVC
17:21 -11.6 °C -17.2 °C 34591.4 hPa WNW 20.9 km/h 20.9 km/h 50 % 0 mm 58.0 W/m2 OVC
17:26 -11.7 °C -17.4 °C 34591.4 hPa WNW 26.9 km/h 26.9 km/h 49 % 0 mm 49.0 W/m2 OVC
17:31 -11.8 °C -17.3 °C 34591.4 hPa WNW 29.8 km/h 29.8 km/h 50 % 0 mm 35.0 W/m2 OVC
17:36 -11.9 °C -17.3 °C 34591.4 hPa WNW 26.9 km/h 26.9 km/h 51 % 0 mm 26.0 W/m2 OVC
17:41 -11.9 °C -17.3 °C 34591.4 hPa WNW 20.9 km/h 20.9 km/h 51 % 0 mm 19.0 W/m2 OVC
17:46 -12 °C -17.4 °C 34591.4 hPa WNW 20.9 km/h 20.9 km/h 51 % 0 mm 14.0 W/m2 OVC
17:51 -12.1 °C -17.3 °C 34591.4 hPa WNW 17.9 km/h 17.9 km/h 52 % 0 mm 12.0 W/m2 OVC
17:56 -12.2 °C -17.3 °C 34591.4 hPa West 17.9 km/h 17.9 km/h 53 % 0 mm 11.0 W/m2 OVC
18:01 -12.3 °C -17.4 °C 34601.5 hPa Calm     53 % 0 mm 7.0 W/m2 OVC
18:06 -12.4 °C -17.4 °C 34601.5 hPa Calm     53 % 0 mm 5.0 W/m2 OVC
18:11 -12.4 °C -17.5 °C 34601.5 hPa Calm     53 % 0 mm 0.0 W/m2 CLR
18:16 -12.6 °C -17.3 °C 34601.5 hPa Calm     55 % 0 mm 0.0 W/m2 CLR
18:21 -12.7 °C -17.2 °C 34601.5 hPa Calm     57 % 0 mm 0.0 W/m2 CLR
18:26 -12.8 °C -17.4 °C 34601.5 hPa Calm     56 % 0 mm 0.0 W/m2 CLR
18:31 -12.9 °C -17.4 °C 34611.7 hPa Calm     57 % 0 mm 0.0 W/m2 CLR
18:36 -13 °C -17.4 °C 34611.7 hPa Calm     57 % 0 mm 0.0 W/m2 CLR
18:41 -13.2 °C -17.4 °C 34611.7 hPa Calm     58 % 0 mm 0.0 W/m2 CLR
18:46 -13.3 °C -17.6 °C 34611.7 hPa Calm     59 % 0 mm 0.0 W/m2 CLR
18:51 -13.4 °C -17.6 °C 34611.7 hPa WSW 3.1 km/h   59 % 0 mm 0.0 W/m2 CLR
18:56 -13.4 °C -17.6 °C 34611.7 hPa WSW 15 km/h 15 km/h 59 % 0 mm 0.0 W/m2 CLR
19:01 -13.4 °C -17.7 °C 34611.7 hPa WSW 17.9 km/h 17.9 km/h 58 % 0 mm 0.0 W/m2 CLR
19:06 -13.2 °C -17.7 °C 34611.7 hPa West 20.9 km/h 20.9 km/h 57 % 0 mm 0.0 W/m2 CLR
19:11 -13 °C -17.7 °C 34611.7 hPa West 26.9 km/h 26.9 km/h 55 % 0 mm 0.0 W/m2 CLR
19:16 -12.9 °C -17.7 °C 34611.7 hPa West 29.8 km/h 29.8 km/h 55 % 0 mm 0.0 W/m2 CLR
19:21 -12.9 °C -17.7 °C 34625.2 hPa West 23.8 km/h 23.8 km/h 55 % 0 mm 0.0 W/m2 CLR
19:26 -13.1 °C -17.7 °C 34625.2 hPa WSW 12.9 km/h 12.9 km/h 56 % 0 mm 0.0 W/m2 CLR
19:31 -13.4 °C -17.7 °C 34625.2 hPa WSW 20.9 km/h 20.9 km/h 58 % 0 mm 0.0 W/m2 CLR
19:36 -13.5 °C -17.8 °C 34625.2 hPa WSW 23.8 km/h 23.8 km/h 58 % 0 mm 0.0 W/m2 CLR
19:41 -13.6 °C -17.8 °C 34625.2 hPa WSW 15.6 km/h 15.6 km/h 58 % 0 mm 0.0 W/m2 CLR
19:46 -13.5 °C -17.8 °C 34625.2 hPa WSW 44.1 km/h 44.1 km/h 58 % 0 mm 0.0 W/m2 CLR
19:51 -13.3 °C -17.9 °C 34635.4 hPa WSW 38.8 km/h 38.8 km/h 56 % 0 mm 0.0 W/m2 CLR
19:56 -13.3 °C -17.9 °C 34635.4 hPa WSW 29.8 km/h 29.8 km/h 56 % 0 mm 0.0 W/m2 CLR
20:01 -13.2 °C -17.9 °C 34635.4 hPa West 32.8 km/h 32.8 km/h 55 % 0 mm 0.0 W/m2 CLR
20:06 -13.1 °C -17.9 °C 34635.4 hPa West 29.8 km/h 29.8 km/h 55 % 0 mm 0.0 W/m2 CLR
20:11 -13.2 °C -17.9 °C 34635.4 hPa West 9 km/h 9 km/h 55 % 0 mm 0.0 W/m2 CLR
20:16 -13.3 °C -17.9 °C 34635.4 hPa WSW 29.8 km/h 29.8 km/h 56 % 0 mm 0.0 W/m2 CLR
20:21 -13.2 °C -17.8 °C 34635.4 hPa West 15.6 km/h 15.6 km/h 56 % 0 mm 0.0 W/m2 CLR
20:26 -13.2 °C -17.9 °C 34645.6 hPa West 26.9 km/h 26.9 km/h 55 % 0 mm 0.0 W/m2 CLR
20:31 -13.3 °C -17.9 °C 34645.6 hPa WSW 17.9 km/h 17.9 km/h 56 % 0 mm 0.0 W/m2 CLR
20:36 -13.4 °C -17.9 °C 34645.6 hPa SW 18.2 km/h 18.2 km/h 57 % 0 mm 0.0 W/m2 CLR
20:41 -13.5 °C -17.9 °C 34645.6 hPa SSW 17.9 km/h 17.9 km/h 57 % 0 mm 0.0 W/m2 CLR
20:46 -13.5 °C -17.9 °C 34645.6 hPa SW 29.8 km/h 29.8 km/h 57 % 0 mm 0.0 W/m2 CLR
20:51 -13.5 °C -17.9 °C 34645.6 hPa SW 26.9 km/h 26.9 km/h 57 % 0 mm 0.0 W/m2 CLR
20:56 -13.6 °C -18 °C 34645.6 hPa SW 23.8 km/h 23.8 km/h 57 % 0 mm 0.0 W/m2 CLR
21:01 -13.6 °C -17.9 °C 34645.6 hPa SW 15.6 km/h 15.6 km/h 58 % 0 mm 0.0 W/m2 CLR
21:06 -13.7 °C -17.9 °C 34645.6 hPa SW 26.9 km/h 26.9 km/h 58 % 0 mm 0.0 W/m2 CLR
21:11 -13.7 °C -17.8 °C 34659.1 hPa WSW 15 km/h 15 km/h 59 % 0 mm 0.0 W/m2 CLR
21:16 -13.7 °C -17.7 °C 34659.1 hPa WSW 20.8 km/h 20.8 km/h 60 % 0 mm 0.0 W/m2 CLR
21:21 -13.7 °C -17.7 °C 34659.1 hPa WSW 15 km/h 15 km/h 60 % 0 mm 0.0 W/m2 CLR
21:26 -13.8 °C -17.6 °C 34659.1 hPa WSW 20.9 km/h 20.9 km/h 62 % 0 mm 0.0 W/m2 CLR
21:31 -13.8 °C -17.6 °C 34659.1 hPa WSW 23.8 km/h 23.8 km/h 62 % 0 mm 0.0 W/m2 CLR
21:36 -13.7 °C -17.5 °C 34659.1 hPa West 38.8 km/h 38.8 km/h 62 % 0 mm 0.0 W/m2 CLR
21:42 -13.6 °C -17.5 °C 34659.1 hPa West 25.9 km/h 25.9 km/h 61 % 0 mm 0.0 W/m2 CLR
21:47 -13.6 °C -17.6 °C 34659.1 hPa West 29.8 km/h 29.8 km/h 60 % 0 mm 0.0 W/m2 CLR
21:52 -13.6 °C -17.5 °C 34659.1 hPa West 26.9 km/h 26.9 km/h 61 % 0 mm 0.0 W/m2 CLR
21:57 -13.7 °C -17.6 °C 34659.1 hPa West 12.9 km/h 12.9 km/h 61 % 0 mm 0.0 W/m2 CLR
22:02 -13.7 °C -17.6 °C 34659.1 hPa West 20.9 km/h 20.9 km/h 61 % 0 mm 0.0 W/m2 CLR
22:07 -13.8 °C -17.6 °C 34659.1 hPa Calm     62 % 0 mm 0.0 W/m2 CLR
22:12 -13.8 °C -17.6 °C 34659.1 hPa WSW 17.9 km/h 17.9 km/h 62 % 0 mm 0.0 W/m2 CLR
22:17 -13.8 °C -17.6 °C 34659.1 hPa West 26.9 km/h 26.9 km/h 62 % 0 mm 0.0 W/m2 CLR
22:22 -13.8 °C -17.6 °C 34659.1 hPa WSW 11.9 km/h 11.9 km/h 62 % 0 mm 0.0 W/m2 CLR
22:27 -13.9 °C -17.7 °C 34659.1 hPa Calm     62 % 0 mm 0.0 W/m2 CLR
22:32 -13.9 °C -17.7 °C 34659.1 hPa WSW 9 km/h 9 km/h 62 % 0 mm 0.0 W/m2 CLR
22:37 -13.9 °C -17.7 °C 34659.1 hPa Calm     62 % 0 mm 0.0 W/m2 CLR
22:42 -13.9 °C -17.6 °C 34659.1 hPa SW 23.8 km/h 23.8 km/h 63 % 0 mm 0.0 W/m2 CLR
22:47 -13.9 °C -17.6 °C 34659.1 hPa Calm     63 % 0 mm 0.0 W/m2 CLR
22:52 -13.9 °C -17.3 °C 34659.1 hPa WSW 29.8 km/h 29.8 km/h 65 % 0 mm 0.0 W/m2 CLR
22:57 -13.9 °C -17.4 °C 34659.1 hPa West 32.8 km/h 32.8 km/h 64 % 0 mm 0.0 W/m2 CLR
23:02 -13.9 °C -17.3 °C 34659.1 hPa West 15 km/h 15 km/h 65 % 0 mm 0.0 W/m2 CLR
23:07 -14 °C -17.5 °C 34659.1 hPa West 15.6 km/h 15.6 km/h 64 % 0 mm 0.0 W/m2 CLR
23:12 -14 °C -17.5 °C 34659.1 hPa West 10.3 km/h 10.3 km/h 64 % 0 mm 0.0 W/m2 CLR
23:17 -14 °C -17.5 °C 34659.1 hPa West 23.3 km/h 23.3 km/h 64 % 0 mm 0.0 W/m2 CLR
23:22 -14.1 °C -17.6 °C 34659.1 hPa WSW 20.9 km/h 20.9 km/h 64 % 0 mm 0.0 W/m2 CLR
23:27 -14.1 °C -17.7 °C 34659.1 hPa WSW 17.9 km/h 17.9 km/h 63 % 0 mm 0.0 W/m2 CLR
23:32 -14.1 °C -17.7 °C 34659.1 hPa West 23.8 km/h 23.8 km/h 63 % 0 mm 0.0 W/m2 CLR
23:37 -14.1 °C -17.7 °C 34659.1 hPa West 20.9 km/h 20.9 km/h 63 % 0 mm 0.0 W/m2 CLR
23:42 -14.1 °C -17.8 °C 34645.6 hPa West 29.8 km/h 29.8 km/h 63 % 0 mm 0.0 W/m2 CLR
23:47 -14.1 °C -17.7 °C 34645.6 hPa West 29.8 km/h 29.8 km/h 63 % 0 mm 0.0 W/m2 CLR
23:52 -14.1 °C -17.8 °C 34645.6 hPa West 29.8 km/h 29.8 km/h 63 % 0 mm 0.0 W/m2 CLR
23:57 -14.2 °C -17.8 °C 34645.6 hPa West 32.8 km/h 32.8 km/h 63 % 0 mm 0.0 W/m2 CLR
Lo Temps de Massalio
Compliments of Weather Underground - 1.25 mb